Time;durP1;ratioP1;P1;durP2;ratioP2;P2;SDS_P1;SDS_P2;PMS_P1;PMS_P2;Temp;Humidity;BMP_temperature;BMP_pressure;BME280_temperature;BME280_humidity;BME280_pressure;Samples;Min_cycle;Max_cycle;Signal;HPM_P1;HPM_P2
2021/06/04 00:01:58;;;;;;;9.15;3.80;;;;;;;14.90;64.70;100013.64;1712936;82;21391;-71
2021/06/04 00:04:29;;;;;;;13.25;4.20;;;;;;;14.88;64.52;100010.37;1713120;83;21032;-69
2021/06/04 00:07:02;;;;;;;7.37;4.25;;;;;;;14.84;66.04;100011.06;1711605;82;21062;-69
2021/06/04 00:09:30;;;;;;;7.62;4.30;;;;;;;14.80;66.38;100010.66;1712419;82;21075;-69
2021/06/04 00:12:02;;;;;;;8.33;4.05;;;;;;;14.76;66.96;100009.70;1722117;83;21019;-69
2021/06/04 00:14:37;;;;;;;11.90;4.30;;;;;;;14.72;66.13;100011.77;1725009;83;21571;-69
2021/06/04 00:17:15;;;;;;;25.92;7.08;;;;;;;14.67;65.03;100013.94;1724566;83;21052;-70
2021/06/04 00:19:44;;;;;;;15.58;5.58;;;;;;;14.63;66.38;100017.13;1726400;82;21008;-68
2021/06/04 00:22:23;;;;;;;26.33;7.47;;;;;;;14.60;66.36;100009.72;1726338;82;21012;-68
2021/06/04 00:24:55;;;;;;;45.98;9.45;;;;;;;14.54;64.98;100008.30;1725136;83;21137;-69
2021/06/04 00:27:23;;;;;;;35.75;11.43;;;;;;;14.46;65.15;100003.62;1723194;83;21060;-69
2021/06/04 00:29:58;;;;;;;34.78;10.78;;;;;;;14.45;65.28;100001.41;1726735;82;21013;-70
2021/06/04 00:32:26;;;;;;;25.52;10.15;;;;;;;14.42;65.23;100002.08;1724177;83;21043;-69
2021/06/04 00:34:59;;;;;;;25.50;9.20;;;;;;;14.40;65.97;100005.76;1726162;82;21039;-70
2021/06/04 00:37:28;;;;;;;40.63;10.55;;;;;;;14.41;66.34;100001.03;1692071;84;21464;-70
2021/06/04 00:39:58;;;;;;;26.15;10.13;;;;;;;14.43;67.05;100005.08;1674186;85;21057;-70
2021/06/04 00:42:28;;;;;;;22.85;8.55;;;;;;;14.40;67.01;100007.14;1672325;85;21096;-69
2021/06/04 00:44:57;;;;;;;38.73;11.05;;;;;;;14.30;65.76;100002.80;1673256;85;21077;-69
2021/06/04 00:47:27;;;;;;;31.80;9.65;;;;;;;14.24;66.75;100006.91;1674353;85;21555;-68
2021/06/04 00:49:57;;;;;;;29.20;8.08;;;;;;;14.22;67.27;100005.86;1645280;85;21042;-68
2021/06/04 00:52:33;;;;;;;37.63;9.55;;;;;;;14.23;67.65;100005.27;1691346;84;21413;-70
2021/06/04 00:55:13;;;;;;;23.98;8.08;;;;;;;14.23;68.37;100010.81;1670897;84;21039;-71
2021/06/04 00:57:42;;;;;;;38.80;9.73;;;;;;;14.20;68.81;100008.71;1668058;84;21044;-70
2021/06/04 01:00:15;;;;;;;36.68;9.15;;;;;;;14.18;69.08;99997.96;1692927;83;21059;-69
2021/06/04 01:02:45;;;;;;;23.20;7.87;;;;;;;14.20;69.42;99997.62;1689924;84;21156;-69
2021/06/04 01:05:14;;;;;;;64.20;11.65;;;;;;;14.20;69.67;100004.55;1696069;83;21118;-70
2021/06/04 01:07:46;;;;;;;31.40;9.73;;;;;;;14.19;69.39;100003.73;1617941;85;21064;-69
2021/06/04 01:10:35;;;;;;;28.23;9.48;;;;;;;14.21;69.58;100004.81;1668987;84;21086;-70
2021/06/04 01:13:16;;;;;;;18.23;8.83;;;;;;;14.20;70.19;100005.38;1710055;83;21532;-69
2021/06/04 01:16:19;;;;;;;14.70;9.20;;;;;;;14.21;70.89;100008.97;1682120;84;21606;-69
2021/06/04 01:19:29;;;;;;;19.87;10.63;;;;;;;14.13;70.47;100002.30;1679653;84;21512;-68
2021/06/04 01:22:05;;;;;;;16.27;9.40;;;;;;;14.11;70.94;100006.80;1714020;82;21169;-70
2021/06/04 01:25:02;;;;;;;15.83;8.55;;;;;;;14.09;71.46;100010.46;1716518;82;21079;-71
2021/06/04 01:27:36;;;;;;;18.95;8.68;;;;;;;14.06;71.62;100013.08;1713981;82;21028;-70
2021/06/04 01:30:18;;;;;;;16.25;7.62;;;;;;;14.05;71.07;100010.08;1705703;82;21246;-70
2021/06/04 01:32:47;;;;;;;12.65;8.48;;;;;;;14.00;70.02;100012.47;1683092;84;21052;-70
2021/06/04 01:35:27;;;;;;;20.75;8.70;;;;;;;13.97;70.52;100011.75;1679249;84;20999;-69
2021/06/04 01:37:59;;;;;;;13.10;7.90;;;;;;;13.94;71.32;100009.62;1660363;85;21418;-70
2021/06/04 01:40:39;;;;;;;21.15;7.80;;;;;;;13.94;71.70;100010.44;1640758;85;21075;-70
2021/06/04 01:43:19;;;;;;;15.40;6.55;;;;;;;13.96;71.44;100008.72;1713845;83;21102;-70
2021/06/04 01:45:54;;;;;;;11.35;6.67;;;;;;;13.98;71.41;100014.19;1691032;83;21469;-70
2021/06/04 01:48:27;;;;;;;17.98;7.65;;;;;;;14.02;72.05;100013.52;1709478;83;21465;-70
2021/06/04 01:51:04;;;;;;;15.10;7.08;;;;;;;13.96;71.13;100013.70;1682939;84;21024;-70
2021/06/04 01:53:46;;;;;;;11.43;5.85;;;;;;;13.96;71.58;100012.31;1712139;82;21033;-70
2021/06/04 01:56:25;;;;;;;13.32;5.75;;;;;;;13.97;72.26;100011.75;1709138;82;21053;-71
2021/06/04 01:59:02;;;;;;;11.10;6.15;;;;;;;13.97;72.73;100011.16;1681613;83;21061;-70
2021/06/04 02:01:38;;;;;;;10.05;6.03;;;;;;;13.97;72.75;100016.70;1711275;83;21088;-69
2021/06/04 02:04:19;;;;;;;13.93;5.60;;;;;;;13.98;72.80;100014.19;1706443;83;21049;-70
2021/06/04 02:06:57;;;;;;;14.80;5.15;;;;;;;13.98;72.56;100011.42;1679525;85;21079;-70
2021/06/04 02:09:27;;;;;;;14.03;6.00;;;;;;;13.99;72.00;100020.52;1708835;82;21020;-71
2021/06/04 02:11:58;;;;;;;12.47;5.30;;;;;;;14.01;72.35;100015.47;1714084;82;21561;-70
2021/06/04 02:14:38;;;;;;;10.32;5.53;;;;;;;14.04;72.73;100026.47;1678409;85;21046;-70
2021/06/04 02:17:26;;;;;;;10.23;4.92;;;;;;;14.02;72.70;100019.88;1713389;82;21588;-70
2021/06/04 02:20:29;;;;;;;16.62;6.03;;;;;;;13.97;72.46;100015.91;1690985;83;21088;-71
2021/06/04 02:23:23;;;;;;;13.62;5.60;;;;;;;14.02;72.69;100020.44;1708629;83;21167;-71
2021/06/04 02:26:03;;;;;;;10.98;5.65;;;;;;;13.97;71.89;100014.52;1695055;83;21017;-70
2021/06/04 02:29:00;;;;;;;12.23;5.72;;;;;;;13.98;72.09;100016.95;1680735;84;22076;-70
2021/06/04 02:31:44;;;;;;;14.35;5.03;;;;;;;13.97;72.65;100018.67;1684506;84;21017;-71
2021/06/04 02:35:00;;;;;;;10.85;5.37;;;;;;;13.96;72.84;100022.01;1659519;84;21015;-71
2021/06/04 02:37:39;;;;;;;14.73;6.10;;;;;;;13.99;73.10;100021.34;1711570;83;21001;-70
2021/06/04 02:40:24;;;;;;;13.13;5.15;;;;;;;14.00;71.82;100029.88;1704001;83;21005;-71
2021/06/04 02:43:09;;;;;;;9.28;5.80;;;;;;;13.97;71.38;100026.39;1678286;84;21016;-71
2021/06/04 02:46:01;;;;;;;19.73;5.47;;;;;;;13.96;71.69;100025.34;1708989;83;21036;-70
2021/06/04 02:48:29;;;;;;;14.43;5.33;;;;;;;13.99;71.65;100027.45;1713848;83;21017;-71
2021/06/04 02:51:21;;;;;;;19.70;5.50;;;;;;;13.98;71.24;100023.88;1711685;83;21090;-71
2021/06/04 02:53:57;;;;;;;6.12;5.00;;;;;;;13.98;71.33;100021.67;1680144;84;20976;-71
2021/06/04 02:56:41;;;;;;;13.43;5.05;;;;;;;13.98;71.90;100015.57;1675558;85;21039;-69
2021/06/04 02:59:19;;;;;;;13.43;5.30;;;;;;;14.06;72.40;100022.78;1709414;83;21044;-70
2021/06/04 03:02:18;;;;;;;14.95;5.62;;;;;;;14.10;72.12;100022.37;1715052;82;21036;-70
2021/06/04 03:04:55;;;;;;;49.35;6.45;;;;;;;14.09;71.73;100024.31;1695687;83;20993;-70
2021/06/04 03:07:38;;;;;;;14.18;5.58;;;;;;;14.12;72.50;100028.39;1698962;83;21041;-72
2021/06/04 03:10:13;;;;;;;17.77;5.67;;;;;;;14.12;72.02;100027.80;1694805;83;21024;-71
2021/06/04 03:12:44;;;;;;;15.72;5.87;;;;;;;14.12;71.93;100029.78;1710993;83;21029;-70
2021/06/04 03:15:34;;;;;;;11.73;5.80;;;;;;;14.11;71.82;100030.91;1711399;83;20985;-70
2021/06/04 03:18:09;;;;;;;13.15;5.70;;;;;;;14.10;72.07;100031.50;1684258;84;21537;-70
2021/06/04 03:20:44;;;;;;;11.85;6.37;;;;;;;14.13;71.82;100027.24;1681977;84;21099;-70
2021/06/04 03:23:19;;;;;;;10.65;5.75;;;;;;;14.15;71.83;100030.50;1681838;84;21016;-71
2021/06/04 03:25:54;;;;;;;14.63;6.87;;;;;;;14.16;71.76;100028.55;1712636;83;21005;-71
2021/06/04 03:28:27;;;;;;;15.13;5.62;;;;;;;14.18;71.71;100027.06;1707674;83;20992;-70
2021/06/04 03:30:54;;;;;;;6.87;4.62;;;;;;;14.20;71.65;100028.93;1706964;84;22161;-70
2021/06/04 03:33:27;;;;;;;15.13;5.83;;;;;;;14.22;71.91;100025.83;1678039;85;21039;-69
2021/06/04 03:35:56;;;;;;;15.13;5.45;;;;;;;14.24;71.59;100026.31;1660353;85;21062;-71
2021/06/04 03:38:24;;;;;;;15.53;6.40;;;;;;;14.23;71.52;100026.05;1662639;85;21569;-70
2021/06/04 03:40:54;;;;;;;11.28;5.37;;;;;;;14.21;71.49;100031.93;1714150;83;21021;-71
2021/06/04 03:43:23;;;;;;;17.62;5.70;;;;;;;14.20;71.37;100035.03;1657356;85;21167;-69
2021/06/04 03:45:50;;;;;;;10.45;5.62;;;;;;;14.17;71.33;100035.14;1679145;85;21050;-69
2021/06/04 03:48:27;;;;;;;10.78;5.87;;;;;;;14.14;71.27;100032.22;1685519;84;21120;-69
2021/06/04 03:50:56;;;;;;;20.27;5.92;;;;;;;14.14;71.27;100022.52;1707937;84;21008;-70
2021/06/04 03:53:24;;;;;;;9.55;5.60;;;;;;;14.13;71.27;100018.92;1709103;83;21082;-70
2021/06/04 03:56:02;;;;;;;13.48;6.37;;;;;;;14.15;71.37;100022.19;1713930;82;21160;-69
2021/06/04 03:58:29;;;;;;;13.00;7.00;;;;;;;14.17;71.49;100028.78;1690156;83;21028;-70
2021/06/04 04:01:01;;;;;;;14.10;6.75;;;;;;;14.18;71.60;100027.06;1707790;84;20996;-70
2021/06/04 04:03:28;;;;;;;14.45;7.87;;;;;;;14.19;71.48;100031.44;1679344;85;21084;-70
2021/06/04 04:05:57;;;;;;;18.40;7.60;;;;;;;14.22;71.62;100028.03;1658780;85;21025;-70
2021/06/04 04:08:28;;;;;;;15.23;6.80;;;;;;;14.26;71.68;100030.95;1685712;84;21199;-70
2021/06/04 04:11:00;;;;;;;15.95;7.40;;;;;;;14.31;71.46;100029.35;1686325;83;21067;-70
2021/06/04 04:13:28;;;;;;;14.93;5.85;;;;;;;14.33;71.17;100024.30;1707871;83;20992;-70
2021/06/04 04:15:56;;;;;;;10.15;6.00;;;;;;;14.36;71.29;100026.40;1707898;84;21052;-69
2021/06/04 04:18:23;;;;;;;14.83;6.40;;;;;;;14.43;71.41;100027.27;1698847;83;21034;-70
2021/06/04 04:20:57;;;;;;;13.10;5.47;;;;;;;14.51;71.70;100026.99;1680983;83;21037;-70
2021/06/04 04:23:37;;;;;;;14.25;6.00;;;;;;;14.59;71.45;100026.13;1712573;83;21025;-69
2021/06/04 04:26:08;;;;;;;17.23;5.92;;;;;;;14.67;70.96;100031.97;1708348;83;21483;-68
2021/06/04 04:28:41;;;;;;;10.82;5.90;;;;;;;14.75;70.79;100033.87;1695679;83;21187;-69
2021/06/04 04:31:12;;;;;;;19.55;7.08;;;;;;;14.80;70.76;100033.70;1712263;83;21005;-69
2021/06/04 04:33:41;;;;;;;30.48;8.23;;;;;;;14.84;70.27;100038.80;1714254;83;21257;-70
2021/06/04 04:36:09;;;;;;;17.00;8.43;;;;;;;14.89;70.20;100035.04;1657200;85;21016;-69
2021/06/04 04:38:45;;;;;;;;;;;;;;;14.92;70.05;100037.70;1687173;84;21016;-70
2021/06/04 04:41:13;;;;;;;29.57;9.20;;;;;;;14.98;70.29;100029.41;1681238;84;20441;-70
2021/06/04 04:43:50;;;;;;;24.43;8.53;;;;;;;15.03;69.59;100035.34;1685224;84;21051;-70
2021/06/04 04:46:19;;;;;;;15.95;7.65;;;;;;;15.06;69.72;100035.45;1683135;84;21121;-70
2021/06/04 04:48:49;;;;;;;30.45;9.20;;;;;;;15.14;69.79;100031.58;1680592;84;21047;-69
2021/06/04 04:51:20;;;;;;;29.98;9.25;;;;;;;15.26;70.02;100034.42;1678095;84;21051;-69
2021/06/04 04:53:51;;;;;;;35.73;9.40;;;;;;;15.36;69.63;100033.19;1676743;84;21027;-71
2021/06/04 04:56:22;;;;;;;22.22;7.53;;;;;;;15.41;68.85;100037.72;1681762;85;21071;-68
2021/06/04 04:58:51;;;;;;;16.50;6.70;;;;;;;15.49;69.09;100038.80;1679594;84;21140;-69
2021/06/04 05:04:07;;;;;;;13.85;5.95;;;;;;;15.77;67.77;100037.62;1879076;75;20858;-73
2021/06/04 05:06:37;;;;;;;12.53;5.00;;;;;;;15.82;67.78;100042.14;1841764;77;21464;-69
2021/06/04 05:09:08;;;;;;;13.10;5.70;;;;;;;15.92;66.98;100043.09;1830978;77;21933;-69
2021/06/04 05:11:40;;;;;;;14.05;4.58;;;;;;;16.02;66.44;100048.02;1805526;78;21673;-70
2021/06/04 05:14:07;;;;;;;23.30;9.60;;;;;;;16.08;65.44;100042.47;1804166;77;21028;-69
2021/06/04 05:16:33;;;;;;;24.55;16.07;;;;;;;16.13;65.29;100044.20;1803476;78;21190;-68
2021/06/04 05:19:05;;;;;;;37.67;18.55;;;;;;;16.20;65.94;100043.05;1727241;81;21028;-68
2021/06/04 05:21:32;;;;;;;34.95;15.20;;;;;;;16.29;65.90;100038.78;1724633;81;21723;-67
2021/06/04 05:24:01;;;;;;;32.05;12.60;;;;;;;16.41;66.08;100040.76;1735753;80;20944;-68
2021/06/04 05:26:28;;;;;;;18.32;8.20;;;;;;;16.54;65.54;100042.95;1738848;81;20948;-69
2021/06/04 05:28:55;;;;;;;16.32;6.65;;;;;;;16.63;64.06;100045.62;1752797;81;21023;-69
2021/06/04 05:31:23;;;;;;;26.65;8.78;;;;;;;16.72;64.03;100048.28;1739756;81;21065;-69
2021/06/04 05:33:52;;;;;;;38.48;14.30;;;;;;;16.81;63.86;100042.56;1712872;81;21143;-69
2021/06/04 05:36:32;;;;;;;17.02;6.30;;;;;;;16.91;63.47;100045.69;1737659;81;21047;-70
2021/06/04 05:39:11;;;;;;;52.83;24.52;;;;;;;16.97;62.40;100044.06;1752873;81;21074;-70
2021/06/04 05:41:38;;;;;;;89.15;17.40;;;;;;;16.99;62.81;100043.92;1769370;80;21073;-70
2021/06/04 05:44:07;;;;;;;26.40;10.82;;;;;;;17.07;62.81;100041.36;1736363;81;21727;-69
2021/06/04 05:46:37;;;;;;;20.50;7.08;;;;;;;17.14;61.58;100048.58;1709848;81;20968;-68
2021/06/04 05:49:07;;;;;;;30.60;11.22;;;;;;;17.20;59.98;100046.33;1748427;81;21055;-69
2021/06/04 05:51:36;;;;;;;16.32;7.85;;;;;;;17.24;60.07;100048.08;1719241;81;21503;-70
2021/06/04 05:54:04;;;;;;;24.77;5.75;;;;;;;17.31;60.19;100050.84;1750357;81;21090;-70
2021/06/04 05:56:41;;;;;;;72.17;13.15;;;;;;;17.35;59.95;100053.16;1749405;81;21069;-69
2021/06/04 05:59:12;;;;;;;19.05;7.15;;;;;;;17.35;60.10;100049.77;1747932;81;21042;-69
2021/06/04 06:01:46;;;;;;;24.82;8.83;;;;;;;17.37;59.14;100053.59;1747170;81;21448;-68
2021/06/04 06:04:16;;;;;;;18.07;6.67;;;;;;;17.37;58.61;100053.02;1748537;80;21011;-69
2021/06/04 06:06:42;;;;;;;18.73;5.17;;;;;;;17.40;58.22;100048.70;1751324;81;21512;-68
2021/06/04 06:09:12;;;;;;;10.68;4.53;;;;;;;17.41;57.35;100048.95;1749342;81;21081;-68
2021/06/04 06:11:41;;;;;;;14.00;4.10;;;;;;;17.40;57.20;100055.66;1748412;81;21080;-70
2021/06/04 06:14:09;;;;;;;9.28;3.20;;;;;;;17.39;56.46;100057.66;1717584;81;21023;-69
2021/06/04 06:16:37;;;;;;;8.58;3.60;;;;;;;17.35;54.87;100048.38;1751874;81;21046;-71
2021/06/04 06:19:06;;;;;;;10.58;4.03;;;;;;;17.36;54.80;100050.59;1747671;81;21003;-70
2021/06/04 06:21:41;;;;;;;19.60;4.03;;;;;;;17.36;54.85;100052.80;1746750;81;20992;-72
2021/06/04 06:24:14;;;;;;;15.13;3.87;;;;;;;17.39;53.95;100053.48;1749087;81;21820;-68
2021/06/04 06:26:45;;;;;;;;;;;;;;;17.48;53.61;100046.38;1749431;81;21448;-69
2021/06/04 06:29:13;;;;;;;8.35;3.95;;;;;;;17.59;53.37;100048.62;1749356;81;20156;-69
2021/06/04 06:31:40;;;;;;;9.35;3.58;;;;;;;17.62;53.66;100050.13;1747271;81;20999;-69
2021/06/04 06:34:09;;;;;;;11.22;4.50;;;;;;;17.66;51.69;100050.22;1750993;81;21513;-70
2021/06/04 06:36:38;;;;;;;8.60;4.17;;;;;;;17.75;53.26;100045.31;1749955;81;21108;-70
2021/06/04 06:39:20;;;;;;;11.10;4.25;;;;;;;17.92;53.56;100042.53;1715357;81;21161;-70
2021/06/04 06:41:51;;;;;;;6.83;3.70;;;;;;;18.09;53.62;100044.99;1746054;81;21503;-70
2021/06/04 06:44:32;;;;;;;12.55;4.35;;;;;;;18.24;50.41;100046.77;1743038;81;21038;-70
2021/06/04 06:50:59;;;;;;;20.85;4.47;;;;;;;18.53;51.62;100045.26;1750627;81;20959;-71
2021/06/04 06:54:39;;;;;;;7.22;3.22;;;;;;;18.62;50.65;100045.89;1723493;81;21689;-70
2021/06/04 07:01:16;;;;;;;10.13;2.92;;;;;;;18.75;47.58;100047.18;1651648;85;21044;-69
2021/06/04 07:03:47;;;;;;;15.30;3.62;;;;;;;18.78;46.50;100044.45;1653988;85;21125;-68
2021/06/04 07:06:21;;;;;;;11.80;3.92;;;;;;;18.81;47.95;100038.16;1681832;85;21169;-69
2021/06/04 07:08:54;;;;;;;27.58;5.85;;;;;;;18.87;46.30;100047.05;1673135;84;21070;-70
2021/06/04 07:11:23;;;;;;;18.90;3.65;;;;;;;18.93;46.99;100049.80;1699847;82;21022;-70
2021/06/04 07:13:53;;;;;;;11.48;3.92;;;;;;;19.04;47.34;100043.64;1734044;82;20987;-68
2021/06/04 07:16:28;;;;;;;19.42;3.95;;;;;;;19.19;47.95;100042.77;1725822;82;21035;-69
2021/06/04 07:19:06;;;;;;;15.93;3.67;;;;;;;19.31;48.17;100045.23;1734309;82;21027;-69
2021/06/04 07:21:37;;;;;;;19.20;3.87;;;;;;;19.40;47.58;100044.41;1700595;82;21555;-71
2021/06/04 07:24:14;;;;;;;21.73;3.15;;;;;;;19.43;44.72;100045.05;1738369;81;21043;-70
2021/06/04 07:26:47;;;;;;;36.70;4.33;;;;;;;19.46;45.33;100038.73;1734342;82;21015;-71
2021/06/04 07:29:18;;;;;;;18.52;4.08;;;;;;;19.54;44.96;100042.48;1703277;82;21015;-69
2021/06/04 07:31:45;;;;;;;14.45;3.67;;;;;;;19.58;44.11;100044.75;1734145;82;22172;-69
2021/06/04 07:34:14;;;;;;;13.62;3.58;;;;;;;19.65;43.61;100044.08;1734221;82;21128;-70
2021/06/04 07:36:49;;;;;;;14.03;2.50;;;;;;;19.67;44.62;100038.14;1734088;82;21043;-70
2021/06/04 07:39:22;;;;;;;12.58;2.65;;;;;;;19.77;45.24;100039.52;1734606;81;21051;-70
2021/06/04 07:41:50;;;;;;;11.73;3.53;;;;;;;19.92;43.57;100036.39;1734579;81;21078;-70
2021/06/04 07:44:20;;;;;;;12.70;3.30;;;;;;;20.07;43.66;100031.89;1738020;81;21104;-70
2021/06/04 07:46:51;;;;;;;16.57;2.90;;;;;;;20.24;43.20;100032.56;1733805;82;20976;-72
2021/06/04 07:49:26;;;;;;;7.10;2.02;;;;;;;20.39;43.23;100026.59;1730333;82;22130;-70
2021/06/04 07:51:58;;;;;;;19.92;2.22;;;;;;;20.58;43.51;100028.50;1732641;82;20987;-70
2021/06/04 07:54:28;;;;;;;6.30;2.70;;;;;;;20.72;42.37;100022.31;1734092;82;21023;-71
2021/06/04 07:57:00;;;;;;;9.95;2.08;;;;;;;20.83;41.86;100021.05;1734304;82;22003;-71
2021/06/04 07:59:26;;;;;;;8.58;2.20;;;;;;;20.87;41.51;100014.92;1733967;82;20994;-69
2021/06/04 08:01:56;;;;;;;11.73;2.85;;;;;;;20.94;41.97;100014.83;1734460;82;20986;-71
2021/06/04 08:04:24;;;;;;;28.65;4.15;;;;;;;21.01;42.17;100020.53;1728880;81;21280;-70
2021/06/04 08:06:58;;;;;;;16.73;2.73;;;;;;;20.87;38.85;100023.32;1732518;82;21183;-70
2021/06/04 08:09:27;;;;;;;7.08;2.15;;;;;;;20.52;38.77;100030.02;1734348;81;21546;-69
2021/06/04 08:12:03;;;;;;;11.10;2.50;;;;;;;20.29;39.33;100028.05;1733912;82;21523;-71
2021/06/04 08:14:30;;;;;;;8.43;2.15;;;;;;;20.14;40.38;100018.62;1734319;82;21003;-70
2021/06/04 08:17:03;;;;;;;9.28;2.12;;;;;;;20.16;40.17;100028.84;1746245;81;21057;-70
2021/06/04 08:19:33;;;;;;;6.50;1.62;;;;;;;20.10;39.42;100028.34;1750645;81;21047;-70
2021/06/04 08:22:07;;;;;;;9.60;2.27;;;;;;;20.01;38.35;100015.19;1741279;81;21002;-70
2021/06/04 08:24:36;;;;;;;5.33;1.77;;;;;;;20.05;40.06;100013.27;1733779;81;21170;-70
2021/06/04 08:27:04;;;;;;;10.15;2.45;;;;;;;20.26;39.10;100021.81;1734118;82;21519;-70
2021/06/04 08:29:35;;;;;;;21.73;2.60;;;;;;;20.43;40.24;100013.48;1749896;81;21566;-70
2021/06/04 08:32:05;;;;;;;30.08;3.55;;;;;;;20.48;38.21;100023.55;1745621;81;21032;-70
2021/06/04 08:34:33;;;;;;;13.95;2.50;;;;;;;20.24;38.83;100019.97;1749674;81;21782;-71
2021/06/04 08:37:05;;;;;;;6.33;1.87;;;;;;;19.95;37.94;100016.08;1746983;81;21608;-70
2021/06/04 08:39:33;;;;;;;5.37;2.22;;;;;;;19.78;39.60;100022.38;1764384;81;21019;-71
2021/06/04 08:42:12;;;;;;;7.60;2.62;;;;;;;19.89;39.92;100014.78;1752188;80;21511;-68
2021/06/04 08:45:32;;;;;;;4.35;2.10;;;;;;;20.07;40.19;100023.50;1745622;82;21559;-69
2021/06/04 08:48:07;;;;;;;5.50;1.95;;;;;;;20.28;40.74;100025.05;1726502;81;21172;-70
2021/06/04 08:51:23;;;;;;;8.25;2.00;;;;;;;20.45;39.34;100032.70;1760215;81;21011;-71
2021/06/04 08:54:04;;;;;;;7.95;1.92;;;;;;;20.55;39.43;100013.28;1740592;80;21463;-69
2021/06/04 08:56:40;;;;;;;8.20;1.92;;;;;;;20.75;39.67;100013.73;1764156;81;21074;-70
2021/06/04 08:59:16;;;;;;;6.83;1.85;;;;;;;20.86;38.80;100010.52;1764849;81;21502;-70
2021/06/04 09:02:09;;;;;;;5.25;2.12;;;;;;;20.94;38.47;100010.63;1732019;81;21917;-71
2021/06/04 09:05:00;;;;;;;3.98;2.33;;;;;;;21.05;38.60;100018.59;1759815;80;21062;-69
2021/06/04 09:07:35;;;;;;;6.40;1.92;;;;;;;21.12;38.33;100020.68;1758844;81;21028;-71
2021/06/04 09:10:42;;;;;;;2.10;1.27;;;;;;;21.24;38.39;100007.80;1754890;81;21570;-69
2021/06/04 09:16:54;;;;;;;11.48;2.50;;;;;;;21.20;36.63;100008.95;1707056;81;21031;-68
2021/06/04 09:19:51;;;;;;;6.92;2.02;;;;;;;21.03;38.04;100011.95;1743414;81;21026;-70
2021/06/04 09:22:20;;;;;;;7.45;1.82;;;;;;;21.15;38.75;100012.30;1733235;81;20978;-70
2021/06/04 09:24:51;;;;;;;8.78;1.98;;;;;;;21.44;39.91;100001.23;1742352;81;21414;-70
2021/06/04 09:27:35;;;;;;;10.00;2.77;;;;;;;21.71;39.59;100000.52;1743503;81;21629;-71
2021/06/04 09:30:35;;;;;;;14.58;2.27;;;;;;;21.86;36.56;100007.09;1747245;81;22343;-71
2021/06/04 09:33:31;;;;;;;12.73;2.65;;;;;;;21.84;37.77;100003.05;1729165;83;20981;-70
2021/06/04 09:36:16;;;;;;;10.75;2.05;;;;;;;21.80;36.63;100006.44;1729478;83;21011;-70
2021/06/04 09:38:54;;;;;;;7.72;1.75;;;;;;;21.74;37.54;100003.13;1726249;83;21086;-69
2021/06/04 09:41:27;;;;;;;8.80;1.70;;;;;;;21.87;37.51;100000.28;1711595;81;21379;-69
2021/06/04 09:44:25;;;;;;;6.62;2.02;;;;;;;22.06;37.31;99998.45;1736238;81;21108;-68
2021/06/04 09:47:13;;;;;;;5.35;1.40;;;;;;;22.21;38.17;99991.56;1743000;81;21039;-69
2021/06/04 09:49:48;;;;;;;9.20;1.90;;;;;;;22.40;34.79;99993.28;1747512;81;20992;-70
2021/06/04 09:52:31;;;;;;;14.23;2.17;;;;;;;22.19;36.42;99993.36;1742393;80;22038;-71
2021/06/04 09:55:29;;;;;;;13.98;2.10;;;;;;;22.09;35.53;99992.05;1743527;81;21066;-69
2021/06/04 09:58:19;;;;;;;6.75;1.85;;;;;;;22.00;36.88;99992.99;1745102;81;21016;-69
2021/06/04 10:01:04;;;;;;;6.47;1.75;;;;;;;22.05;35.96;99992.64;1748842;81;22162;-71
2021/06/04 10:03:51;;;;;;;9.65;3.17;;;;;;;21.97;34.73;99982.55;1723283;81;21031;-69
2021/06/04 10:06:27;;;;;;;7.50;1.92;;;;;;;21.75;34.75;99981.72;1714477;81;21040;-68
2021/06/04 10:12:33;;;;;;;10.65;2.40;;;;;;;21.60;36.29;99982.17;1743393;81;21150;-70
2021/06/04 10:15:46;;;;;;;35.80;4.28;;;;;;;21.70;36.35;99982.06;1722553;82;21043;-69
2021/06/04 10:18:34;;;;;;;8.28;2.27;;;;;;;21.73;35.58;99982.69;1700598;84;21030;-68
2021/06/04 10:21:26;;;;;;;9.30;2.05;;;;;;;21.82;36.10;99981.62;1691946;84;21042;-70
2021/06/04 10:23:55;;;;;;;5.20;1.80;;;;;;;22.02;37.10;99989.21;1706060;83;21144;-68
2021/06/04 10:26:35;;;;;;;8.88;1.90;;;;;;;22.29;37.13;99991.83;1725286;82;22424;-68
2021/06/04 10:29:10;;;;;;;11.70;2.60;;;;;;;22.32;35.39;99981.22;1730729;83;21035;-68
2021/06/04 10:31:49;;;;;;;7.95;1.67;;;;;;;22.35;36.19;99982.42;1726777;82;21075;-70
2021/06/04 10:34:48;;;;;;;19.42;2.87;;;;;;;22.46;35.62;99983.91;1715977;82;20997;-70
2021/06/04 10:37:52;;;;;;;6.05;1.90;;;;;;;22.56;36.65;99971.95;1719025;82;20991;-70
2021/06/04 10:40:51;;;;;;;8.30;1.90;;;;;;;22.71;36.69;99991.11;1706123;83;21023;-69
2021/06/04 10:43:43;;;;;;;25.75;2.40;;;;;;;22.88;35.25;99975.36;1716651;83;21080;-70
2021/06/04 10:46:22;;;;;;;11.48;1.82;;;;;;;22.82;35.14;99979.14;1705185;84;21054;-68
2021/06/04 10:49:13;;;;;;;9.45;2.30;;;;;;;22.80;35.31;99975.91;1705228;84;21511;-69
2021/06/04 10:51:58;;;;;;;3.17;1.50;;;;;;;22.89;36.55;99973.56;1641585;84;21471;-70
2021/06/04 10:54:45;;;;;;;11.43;1.67;;;;;;;23.10;36.16;99977.05;1702406;83;21020;-71
2021/06/04 10:57:41;;;;;;;4.60;1.42;;;;;;;23.15;35.17;99981.47;1672301;83;21025;-71
2021/06/04 11:00:26;;;;;;;12.33;2.67;;;;;;;23.18;33.98;99975.09;1710913;83;21602;-71
2021/06/04 11:03:22;;;;;;;10.50;1.87;;;;;;;23.20;34.93;99968.45;1666823;83;21021;-69
2021/06/04 11:05:56;;;;;;;27.55;2.27;;;;;;;23.39;35.56;99979.14;1718626;83;21372;-73
2021/06/04 11:08:49;;;;;;;4.10;1.90;;;;;;;23.59;35.60;99973.98;1694774;82;21520;-72
2021/06/04 11:12:06;;;;;;;8.20;2.00;;;;;;;23.74;34.30;99971.21;1687155;83;21098;-69
2021/06/04 11:15:26;;;;;;;7.80;1.98;;;;;;;23.82;33.30;99975.63;1692158;83;21062;-70
2021/06/04 11:18:01;;;;;;;11.55;2.02;;;;;;;23.98;35.15;99975.84;1694476;84;21094;-71
2021/06/04 11:20:40;;;;;;;3.42;1.50;;;;;;;24.15;34.13;99972.02;1698021;84;21104;-71
2021/06/04 11:23:36;;;;;;;5.08;1.70;;;;;;;24.18;33.10;99965.61;1708345;83;21568;-71
2021/06/04 11:26:09;;;;;;;14.87;2.05;;;;;;;24.09;33.35;99965.98;1687551;83;21055;-71
2021/06/04 11:28:58;;;;;;;8.75;1.60;;;;;;;23.83;32.89;99973.63;1710411;83;21091;-71
2021/06/04 11:31:32;;;;;;;4.95;1.77;;;;;;;23.64;33.43;99968.59;1692113;84;21547;-70
2021/06/04 11:34:03;;;;;;;11.22;2.50;;;;;;;23.54;33.43;99970.16;1706396;83;21020;-70
2021/06/04 11:36:34;;;;;;;10.98;1.92;;;;;;;23.48;33.12;99975.17;1715789;83;21157;-70
2021/06/04 11:39:13;;;;;;;4.55;1.80;;;;;;;23.32;33.00;99974.92;1701634;83;21134;-71
2021/06/04 11:41:53;;;;;;;4.25;1.27;;;;;;;23.13;32.88;99970.44;1704641;83;21008;-70
2021/06/04 11:44:42;;;;;;;8.23;1.87;;;;;;;22.91;32.56;99968.33;1713185;83;21005;-71
2021/06/04 11:47:32;;;;;;;7.47;1.98;;;;;;;22.90;33.86;99961.70;1685546;85;21581;-71
2021/06/04 11:50:14;;;;;;;11.73;1.67;;;;;;;23.09;32.77;99967.61;1649378;85;22108;-69
2021/06/04 11:53:40;;;;;;;14.90;2.05;;;;;;;23.06;32.50;99965.00;1690156;83;20996;-70
2021/06/04 11:56:51;;;;;;;18.95;1.65;;;;;;;23.13;32.69;99958.61;1711293;83;21048;-70
2021/06/04 11:59:57;;;;;;;4.00;1.90;;;;;;;23.26;33.27;99957.63;1698291;84;21094;-71
2021/06/04 12:02:50;;;;;;;7.08;1.80;;;;;;;23.37;32.14;99958.27;1690100;83;21011;-71
2021/06/04 12:05:32;;;;;;;7.95;1.70;;;;;;;23.28;32.61;99960.05;1711957;83;21107;-70
2021/06/04 12:08:32;;;;;;;11.70;2.35;;;;;;;23.30;33.38;99959.83;1692398;84;21039;-71
2021/06/04 12:11:29;;;;;;;5.90;1.67;;;;;;;23.25;32.87;99968.69;1697725;84;21605;-69
2021/06/04 12:14:06;;;;;;;9.40;2.10;;;;;;;22.98;32.33;99959.94;1693096;83;21098;-70
2021/06/04 12:16:40;;;;;;;10.63;2.02;;;;;;;22.97;33.94;99967.36;1680202;84;21062;-69
2021/06/04 12:19:30;;;;;;;6.03;1.75;;;;;;;23.10;33.19;99967.21;1711312;83;22073;-70
2021/06/04 12:22:25;;;;;;;10.00;2.00;;;;;;;23.19;33.34;99967.44;1694267;83;21035;-72
2021/06/04 12:25:03;;;;;;;14.70;2.77;;;;;;;23.19;33.18;99966.03;1706764;83;21082;-69
2021/06/04 12:27:37;;;;;;;17.23;2.52;;;;;;;23.03;31.99;99960.77;1706950;84;21034;-69
2021/06/04 12:30:11;;;;;;;5.83;1.62;;;;;;;22.89;32.72;99965.73;1700882;83;21099;-69